sensor_id;sensor_type;location;lat;lon;timestamp;P1;durP1;ratioP1;P2;durP2;ratioP2
30635;SDS011;17400;52.392;9.750;2023-01-20T00:01:54;29.80;;;15.87;;
30635;SDS011;17400;52.392;9.750;2023-01-20T00:04:21;30.70;;;12.73;;
30635;SDS011;17400;52.392;9.750;2023-01-20T00:06:49;33.50;;;16.37;;
30635;SDS011;17400;52.392;9.750;2023-01-20T00:09:18;33.57;;;15.50;;
30635;SDS011;17400;52.392;9.750;2023-01-20T00:11:47;29.13;;;15.37;;
30635;SDS011;17400;52.392;9.750;2023-01-20T00:14:15;38.27;;;14.70;;
30635;SDS011;17400;52.392;9.750;2023-01-20T00:16:42;33.30;;;17.07;;
30635;SDS011;17400;52.392;9.750;2023-01-20T00:19:10;31.87;;;14.77;;
30635;SDS011;17400;52.392;9.750;2023-01-20T00:21:39;36.70;;;15.87;;
30635;SDS011;17400;52.392;9.750;2023-01-20T00:24:08;28.10;;;14.77;;
30635;SDS011;17400;52.392;9.750;2023-01-20T00:26:37;30.43;;;14.73;;
30635;SDS011;17400;52.392;9.750;2023-01-20T00:29:05;31.90;;;13.63;;
30635;SDS011;17400;52.392;9.750;2023-01-20T00:31:32;29.87;;;12.30;;
30635;SDS011;17400;52.392;9.750;2023-01-20T00:34:01;28.57;;;14.70;;
30635;SDS011;17400;52.392;9.750;2023-01-20T00:36:31;29.77;;;15.17;;
30635;SDS011;17400;52.392;9.750;2023-01-20T00:38:59;25.73;;;12.90;;
30635;SDS011;17400;52.392;9.750;2023-01-20T00:41:27;29.20;;;13.77;;
30635;SDS011;17400;52.392;9.750;2023-01-20T00:43:56;37.70;;;17.13;;
30635;SDS011;17400;52.392;9.750;2023-01-20T00:46:24;29.57;;;13.63;;
30635;SDS011;17400;52.392;9.750;2023-01-20T00:48:52;26.33;;;13.17;;
30635;SDS011;17400;52.392;9.750;2023-01-20T00:51:19;30.83;;;14.23;;
30635;SDS011;17400;52.392;9.750;2023-01-20T00:53:47;33.83;;;14.77;;
30635;SDS011;17400;52.392;9.750;2023-01-20T00:56:14;31.70;;;15.57;;
30635;SDS011;17400;52.392;9.750;2023-01-20T00:58:42;29.97;;;14.17;;
30635;SDS011;17400;52.392;9.750;2023-01-20T01:01:12;28.43;;;15.03;;
30635;SDS011;17400;52.392;9.750;2023-01-20T01:03:39;26.10;;;14.50;;
30635;SDS011;17400;52.392;9.750;2023-01-20T01:06:08;30.03;;;15.00;;
30635;SDS011;17400;52.392;9.750;2023-01-20T01:08:37;27.07;;;14.37;;
30635;SDS011;17400;52.392;9.750;2023-01-20T01:11:05;25.07;;;13.73;;
30635;SDS011;17400;52.392;9.750;2023-01-20T01:13:34;33.37;;;14.20;;
30635;SDS011;17400;52.392;9.750;2023-01-20T01:16:04;30.13;;;13.77;;
30635;SDS011;17400;52.392;9.750;2023-01-20T01:18:37;31.37;;;15.07;;
30635;SDS011;17400;52.392;9.750;2023-01-20T01:21:05;30.07;;;13.93;;
30635;SDS011;17400;52.392;9.750;2023-01-20T01:23:34;29.00;;;13.83;;
30635;SDS011;17400;52.392;9.750;2023-01-20T01:26:02;25.77;;;13.53;;
30635;SDS011;17400;52.392;9.750;2023-01-20T01:28:29;25.73;;;12.80;;
30635;SDS011;17400;52.392;9.750;2023-01-20T01:30:58;23.47;;;10.77;;
30635;SDS011;17400;52.392;9.750;2023-01-20T01:33:27;21.30;;;11.27;;
30635;SDS011;17400;52.392;9.750;2023-01-20T01:35:56;19.27;;;10.17;;
30635;SDS011;17400;52.392;9.750;2023-01-20T01:38:25;19.97;;;10.40;;
30635;SDS011;17400;52.392;9.750;2023-01-20T01:40:53;22.70;;;11.27;;
30635;SDS011;17400;52.392;9.750;2023-01-20T01:43:22;32.73;;;13.83;;
30635;SDS011;17400;52.392;9.750;2023-01-20T01:45:52;24.60;;;10.97;;
30635;SDS011;17400;52.392;9.750;2023-01-20T01:48:20;28.30;;;12.73;;
30635;SDS011;17400;52.392;9.750;2023-01-20T01:50:51;29.90;;;14.03;;
30635;SDS011;17400;52.392;9.750;2023-01-20T01:53:22;28.50;;;11.70;;
30635;SDS011;17400;52.392;9.750;2023-01-20T01:55:54;28.63;;;12.80;;
30635;SDS011;17400;52.392;9.750;2023-01-20T01:58:25;28.17;;;13.03;;
30635;SDS011;17400;52.392;9.750;2023-01-20T02:00:56;24.93;;;11.23;;
30635;SDS011;17400;52.392;9.750;2023-01-20T02:03:24;27.97;;;12.93;;
30635;SDS011;17400;52.392;9.750;2023-01-20T02:05:59;23.33;;;11.07;;
30635;SDS011;17400;52.392;9.750;2023-01-20T02:08:28;25.20;;;11.90;;
30635;SDS011;17400;52.392;9.750;2023-01-20T02:10:55;21.60;;;10.37;;
30635;SDS011;17400;52.392;9.750;2023-01-20T02:13:23;23.00;;;11.37;;
30635;SDS011;17400;52.392;9.750;2023-01-20T02:15:52;23.07;;;10.30;;
30635;SDS011;17400;52.392;9.750;2023-01-20T02:18:48;23.93;;;11.27;;
30635;SDS011;17400;52.392;9.750;2023-01-20T02:21:33;21.23;;;11.77;;
30635;SDS011;17400;52.392;9.750;2023-01-20T02:24:24;24.30;;;12.87;;
30635;SDS011;17400;52.392;9.750;2023-01-20T02:27:13;21.23;;;10.77;;
30635;SDS011;17400;52.392;9.750;2023-01-20T02:29:58;26.90;;;14.13;;
30635;SDS011;17400;52.392;9.750;2023-01-20T02:32:37;28.33;;;13.17;;
30635;SDS011;17400;52.392;9.750;2023-01-20T02:35:14;31.93;;;13.83;;
30635;SDS011;17400;52.392;9.750;2023-01-20T02:37:52;25.60;;;12.00;;
30635;SDS011;17400;52.392;9.750;2023-01-20T02:40:28;25.63;;;12.80;;
30635;SDS011;17400;52.392;9.750;2023-01-20T02:43:00;25.57;;;11.47;;
30635;SDS011;17400;52.392;9.750;2023-01-20T02:45:36;25.10;;;11.20;;
30635;SDS011;17400;52.392;9.750;2023-01-20T02:48:14;26.37;;;11.93;;
30635;SDS011;17400;52.392;9.750;2023-01-20T02:50:52;24.90;;;12.60;;
30635;SDS011;17400;52.392;9.750;2023-01-20T02:53:26;27.33;;;11.23;;
30635;SDS011;17400;52.392;9.750;2023-01-20T02:55:59;26.73;;;13.40;;
30635;SDS011;17400;52.392;9.750;2023-01-20T02:58:32;26.97;;;13.47;;
30635;SDS011;17400;52.392;9.750;2023-01-20T03:01:06;26.57;;;12.73;;
30635;SDS011;17400;52.392;9.750;2023-01-20T03:03:40;28.80;;;13.20;;
30635;SDS011;17400;52.392;9.750;2023-01-20T03:06:13;30.83;;;14.20;;
30635;SDS011;17400;52.392;9.750;2023-01-20T03:08:46;27.50;;;14.10;;
30635;SDS011;17400;52.392;9.750;2023-01-20T03:11:17;29.87;;;12.80;;
30635;SDS011;17400;52.392;9.750;2023-01-20T03:13:47;29.23;;;13.73;;
30635;SDS011;17400;52.392;9.750;2023-01-20T03:16:17;27.43;;;11.43;;
30635;SDS011;17400;52.392;9.750;2023-01-20T03:18:50;24.30;;;12.33;;
30635;SDS011;17400;52.392;9.750;2023-01-20T03:21:18;28.67;;;14.33;;
30635;SDS011;17400;52.392;9.750;2023-01-20T03:23:47;33.47;;;14.77;;
30635;SDS011;17400;52.392;9.750;2023-01-20T03:26:17;30.57;;;13.70;;
30635;SDS011;17400;52.392;9.750;2023-01-20T03:28:46;32.93;;;16.07;;
30635;SDS011;17400;52.392;9.750;2023-01-20T03:31:16;31.20;;;14.87;;
30635;SDS011;17400;52.392;9.750;2023-01-20T03:33:47;30.10;;;12.97;;
30635;SDS011;17400;52.392;9.750;2023-01-20T03:36:19;32.00;;;13.70;;
30635;SDS011;17400;52.392;9.750;2023-01-20T03:38:48;31.70;;;12.17;;
30635;SDS011;17400;52.392;9.750;2023-01-20T03:41:17;30.23;;;14.20;;
30635;SDS011;17400;52.392;9.750;2023-01-20T03:43:54;26.53;;;12.57;;
30635;SDS011;17400;52.392;9.750;2023-01-20T03:46:32;28.63;;;12.73;;
30635;SDS011;17400;52.392;9.750;2023-01-20T03:49:11;30.33;;;13.57;;
30635;SDS011;17400;52.392;9.750;2023-01-20T03:51:48;30.73;;;14.93;;
30635;SDS011;17400;52.392;9.750;2023-01-20T03:54:23;28.20;;;14.20;;
30635;SDS011;17400;52.392;9.750;2023-01-20T03:56:54;34.07;;;14.97;;
30635;SDS011;17400;52.392;9.750;2023-01-20T03:59:29;26.27;;;12.97;;
30635;SDS011;17400;52.392;9.750;2023-01-20T04:02:00;31.83;;;13.67;;
30635;SDS011;17400;52.392;9.750;2023-01-20T04:04:32;32.43;;;14.87;;
30635;SDS011;17400;52.392;9.750;2023-01-20T04:07:04;27.20;;;13.17;;
30635;SDS011;17400;52.392;9.750;2023-01-20T04:09:34;29.90;;;13.60;;
30635;SDS011;17400;52.392;9.750;2023-01-20T04:12:05;35.67;;;13.80;;
30635;SDS011;17400;52.392;9.750;2023-01-20T04:14:33;24.30;;;13.17;;
30635;SDS011;17400;52.392;9.750;2023-01-20T04:17:01;29.50;;;13.63;;
30635;SDS011;17400;52.392;9.750;2023-01-20T04:19:30;31.83;;;14.77;;
30635;SDS011;17400;52.392;9.750;2023-01-20T04:21:59;34.97;;;14.73;;
30635;SDS011;17400;52.392;9.750;2023-01-20T04:24:33;30.73;;;13.80;;
30635;SDS011;17400;52.392;9.750;2023-01-20T04:27:05;32.50;;;14.53;;
30635;SDS011;17400;52.392;9.750;2023-01-20T04:29:32;26.63;;;12.77;;
30635;SDS011;17400;52.392;9.750;2023-01-20T04:32:01;23.60;;;12.30;;
30635;SDS011;17400;52.392;9.750;2023-01-20T04:34:29;30.10;;;14.53;;
30635;SDS011;17400;52.392;9.750;2023-01-20T04:36:57;24.03;;;10.93;;
30635;SDS011;17400;52.392;9.750;2023-01-20T04:39:25;29.87;;;13.57;;
30635;SDS011;17400;52.392;9.750;2023-01-20T04:41:54;27.17;;;13.13;;
30635;SDS011;17400;52.392;9.750;2023-01-20T04:44:21;28.13;;;14.93;;
30635;SDS011;17400;52.392;9.750;2023-01-20T04:46:49;33.87;;;14.27;;
30635;SDS011;17400;52.392;9.750;2023-01-20T04:49:16;25.30;;;13.53;;
30635;SDS011;17400;52.392;9.750;2023-01-20T04:51:44;28.90;;;13.57;;
30635;SDS011;17400;52.392;9.750;2023-01-20T04:54:12;29.77;;;14.20;;
30635;SDS011;17400;52.392;9.750;2023-01-20T04:56:39;26.80;;;12.03;;
30635;SDS011;17400;52.392;9.750;2023-01-20T04:59:09;26.17;;;13.60;;
30635;SDS011;17400;52.392;9.750;2023-01-20T05:01:37;30.67;;;13.57;;
30635;SDS011;17400;52.392;9.750;2023-01-20T05:04:05;24.40;;;11.20;;
30635;SDS011;17400;52.392;9.750;2023-01-20T05:06:32;20.97;;;10.73;;
30635;SDS011;17400;52.392;9.750;2023-01-20T05:09:00;25.97;;;14.37;;
30635;SDS011;17400;52.392;9.750;2023-01-20T05:11:28;22.60;;;11.63;;
30635;SDS011;17400;52.392;9.750;2023-01-20T05:13:56;28.10;;;13.10;;
30635;SDS011;17400;52.392;9.750;2023-01-20T05:16:25;26.90;;;11.83;;
30635;SDS011;17400;52.392;9.750;2023-01-20T05:18:57;22.80;;;12.03;;
30635;SDS011;17400;52.392;9.750;2023-01-20T05:21:24;26.43;;;12.63;;
30635;SDS011;17400;52.392;9.750;2023-01-20T05:23:52;25.43;;;12.60;;
30635;SDS011;17400;52.392;9.750;2023-01-20T05:26:20;27.80;;;12.07;;
30635;SDS011;17400;52.392;9.750;2023-01-20T05:28:48;23.13;;;12.40;;
30635;SDS011;17400;52.392;9.750;2023-01-20T05:31:16;23.67;;;11.77;;
30635;SDS011;17400;52.392;9.750;2023-01-20T05:33:45;27.63;;;13.57;;
30635;SDS011;17400;52.392;9.750;2023-01-20T05:36:13;23.43;;;12.17;;
30635;SDS011;17400;52.392;9.750;2023-01-20T05:38:41;26.07;;;11.53;;
30635;SDS011;17400;52.392;9.750;2023-01-20T05:41:08;26.30;;;12.20;;
30635;SDS011;17400;52.392;9.750;2023-01-20T05:43:36;22.70;;;11.33;;
30635;SDS011;17400;52.392;9.750;2023-01-20T05:46:04;25.43;;;12.83;;
30635;SDS011;17400;52.392;9.750;2023-01-20T05:48:32;29.33;;;13.03;;
30635;SDS011;17400;52.392;9.750;2023-01-20T05:51:01;22.77;;;11.37;;
30635;SDS011;17400;52.392;9.750;2023-01-20T05:53:29;29.10;;;13.83;;
30635;SDS011;17400;52.392;9.750;2023-01-20T05:56:00;26.53;;;12.97;;
30635;SDS011;17400;52.392;9.750;2023-01-20T05:58:28;30.40;;;14.33;;
30635;SDS011;17400;52.392;9.750;2023-01-20T06:01:02;29.90;;;13.33;;
30635;SDS011;17400;52.392;9.750;2023-01-20T06:03:31;27.97;;;12.77;;
30635;SDS011;17400;52.392;9.750;2023-01-20T06:06:00;30.97;;;14.57;;
30635;SDS011;17400;52.392;9.750;2023-01-20T06:08:30;24.30;;;11.57;;
30635;SDS011;17400;52.392;9.750;2023-01-20T06:10:59;27.17;;;11.53;;
30635;SDS011;17400;52.392;9.750;2023-01-20T06:13:27;22.60;;;11.23;;
30635;SDS011;17400;52.392;9.750;2023-01-20T06:15:55;23.63;;;10.17;;
30635;SDS011;17400;52.392;9.750;2023-01-20T06:18:23;26.37;;;11.97;;
30635;SDS011;17400;52.392;9.750;2023-01-20T06:20:55;22.90;;;11.80;;
30635;SDS011;17400;52.392;9.750;2023-01-20T06:23:24;26.13;;;13.73;;
30635;SDS011;17400;52.392;9.750;2023-01-20T06:25:56;32.87;;;14.90;;
30635;SDS011;17400;52.392;9.750;2023-01-20T06:28:25;31.23;;;14.63;;
30635;SDS011;17400;52.392;9.750;2023-01-20T06:30:59;24.83;;;13.37;;
30635;SDS011;17400;52.392;9.750;2023-01-20T06:33:29;30.53;;;12.83;;
30635;SDS011;17400;52.392;9.750;2023-01-20T06:35:57;26.93;;;13.23;;
30635;SDS011;17400;52.392;9.750;2023-01-20T06:38:27;25.93;;;13.00;;
30635;SDS011;17400;52.392;9.750;2023-01-20T06:40:56;25.53;;;13.47;;
30635;SDS011;17400;52.392;9.750;2023-01-20T06:43:27;29.60;;;13.23;;
30635;SDS011;17400;52.392;9.750;2023-01-20T06:45:59;32.30;;;13.27;;
30635;SDS011;17400;52.392;9.750;2023-01-20T06:48:28;31.67;;;14.67;;
30635;SDS011;17400;52.392;9.750;2023-01-20T06:50:59;25.97;;;14.33;;
30635;SDS011;17400;52.392;9.750;2023-01-20T06:53:29;30.17;;;12.77;;
30635;SDS011;17400;52.392;9.750;2023-01-20T06:55:57;32.30;;;14.33;;
30635;SDS011;17400;52.392;9.750;2023-01-20T06:58:27;23.47;;;12.97;;
30635;SDS011;17400;52.392;9.750;2023-01-20T07:00:56;23.73;;;11.70;;
30635;SDS011;17400;52.392;9.750;2023-01-20T07:03:27;28.33;;;12.90;;
30635;SDS011;17400;52.392;9.750;2023-01-20T07:05:56;30.80;;;13.87;;
30635;SDS011;17400;52.392;9.750;2023-01-20T07:08:25;28.63;;;13.27;;
30635;SDS011;17400;52.392;9.750;2023-01-20T07:10:55;26.17;;;13.10;;
30635;SDS011;17400;52.392;9.750;2023-01-20T07:13:22;27.97;;;14.53;;
30635;SDS011;17400;52.392;9.750;2023-01-20T07:15:50;31.40;;;16.30;;
30635;SDS011;17400;52.392;9.750;2023-01-20T07:18:21;31.30;;;14.60;;
30635;SDS011;17400;52.392;9.750;2023-01-20T07:20:51;34.50;;;14.73;;
30635;SDS011;17400;52.392;9.750;2023-01-20T07:23:20;32.93;;;14.50;;
30635;SDS011;17400;52.392;9.750;2023-01-20T07:25:56;32.33;;;15.00;;
30635;SDS011;17400;52.392;9.750;2023-01-20T07:28:24;32.17;;;15.13;;
30635;SDS011;17400;52.392;9.750;2023-01-20T07:30:52;34.97;;;16.03;;
30635;SDS011;17400;52.392;9.750;2023-01-20T07:33:20;35.43;;;17.87;;
30635;SDS011;17400;52.392;9.750;2023-01-20T07:35:50;40.37;;;14.97;;
30635;SDS011;17400;52.392;9.750;2023-01-20T07:38:19;32.87;;;15.30;;
30635;SDS011;17400;52.392;9.750;2023-01-20T07:40:47;35.30;;;16.47;;
30635;SDS011;17400;52.392;9.750;2023-01-20T07:43:17;31.73;;;14.40;;
30635;SDS011;17400;52.392;9.750;2023-01-20T07:45:45;35.03;;;16.17;;
30635;SDS011;17400;52.392;9.750;2023-01-20T07:48:12;30.83;;;14.43;;
30635;SDS011;17400;52.392;9.750;2023-01-20T07:50:40;30.30;;;15.03;;
30635;SDS011;17400;52.392;9.750;2023-01-20T07:53:07;29.50;;;15.00;;
30635;SDS011;17400;52.392;9.750;2023-01-20T07:55:35;31.77;;;13.90;;
30635;SDS011;17400;52.392;9.750;2023-01-20T07:58:03;32.60;;;15.33;;
30635;SDS011;17400;52.392;9.750;2023-01-20T08:00:32;33.67;;;17.20;;
30635;SDS011;17400;52.392;9.750;2023-01-20T08:03:00;40.03;;;16.17;;
30635;SDS011;17400;52.392;9.750;2023-01-20T08:05:28;34.00;;;15.60;;
30635;SDS011;17400;52.392;9.750;2023-01-20T08:07:58;31.50;;;15.17;;
30635;SDS011;17400;52.392;9.750;2023-01-20T08:10:25;31.13;;;15.07;;
30635;SDS011;17400;52.392;9.750;2023-01-20T08:12:54;35.70;;;15.77;;
30635;SDS011;17400;52.392;9.750;2023-01-20T08:15:22;32.30;;;16.13;;
30635;SDS011;17400;52.392;9.750;2023-01-20T08:17:53;30.10;;;13.93;;
30635;SDS011;17400;52.392;9.750;2023-01-20T08:20:21;35.47;;;16.30;;
30635;SDS011;17400;52.392;9.750;2023-01-20T08:22:49;35.00;;;16.60;;
30635;SDS011;17400;52.392;9.750;2023-01-20T08:25:17;30.80;;;14.27;;
30635;SDS011;17400;52.392;9.750;2023-01-20T08:27:46;35.53;;;15.20;;
30635;SDS011;17400;52.392;9.750;2023-01-20T08:30:14;36.33;;;18.47;;
30635;SDS011;17400;52.392;9.750;2023-01-20T08:32:42;37.40;;;18.60;;
30635;SDS011;17400;52.392;9.750;2023-01-20T08:35:11;30.53;;;15.03;;
30635;SDS011;17400;52.392;9.750;2023-01-20T08:37:39;39.90;;;16.83;;
30635;SDS011;17400;52.392;9.750;2023-01-20T08:40:08;39.17;;;16.00;;
30635;SDS011;17400;52.392;9.750;2023-01-20T08:42:37;36.60;;;16.87;;
30635;SDS011;17400;52.392;9.750;2023-01-20T08:45:06;28.30;;;14.07;;
30635;SDS011;17400;52.392;9.750;2023-01-20T08:47:34;33.80;;;15.93;;
30635;SDS011;17400;52.392;9.750;2023-01-20T08:50:03;30.90;;;14.23;;
30635;SDS011;17400;52.392;9.750;2023-01-20T08:52:33;29.87;;;14.57;;
30635;SDS011;17400;52.392;9.750;2023-01-20T08:55:01;34.83;;;15.33;;
30635;SDS011;17400;52.392;9.750;2023-01-20T08:57:28;31.83;;;15.73;;
30635;SDS011;17400;52.392;9.750;2023-01-20T08:59:56;32.03;;;15.07;;
30635;SDS011;17400;52.392;9.750;2023-01-20T09:02:24;31.50;;;15.60;;
30635;SDS011;17400;52.392;9.750;2023-01-20T09:04:51;32.67;;;16.23;;
30635;SDS011;17400;52.392;9.750;2023-01-20T09:07:19;26.43;;;13.13;;
30635;SDS011;17400;52.392;9.750;2023-01-20T09:09:49;34.47;;;14.90;;
30635;SDS011;17400;52.392;9.750;2023-01-20T09:12:17;30.57;;;13.53;;
30635;SDS011;17400;52.392;9.750;2023-01-20T09:14:45;26.20;;;13.63;;
30635;SDS011;17400;52.392;9.750;2023-01-20T09:17:13;32.13;;;15.37;;
30635;SDS011;17400;52.392;9.750;2023-01-20T09:19:41;31.53;;;15.47;;
30635;SDS011;17400;52.392;9.750;2023-01-20T09:22:09;31.67;;;13.70;;
30635;SDS011;17400;52.392;9.750;2023-01-20T09:24:36;23.27;;;11.47;;
30635;SDS011;17400;52.392;9.750;2023-01-20T09:27:05;27.60;;;13.40;;
30635;SDS011;17400;52.392;9.750;2023-01-20T09:29:33;20.53;;;9.77;;
30635;SDS011;17400;52.392;9.750;2023-01-20T09:32:01;29.77;;;11.93;;
30635;SDS011;17400;52.392;9.750;2023-01-20T09:34:29;27.80;;;12.47;;
30635;SDS011;17400;52.392;9.750;2023-01-20T09:36:58;32.10;;;15.40;;
30635;SDS011;17400;52.392;9.750;2023-01-20T09:39:47;33.40;;;13.77;;
30635;SDS011;17400;52.392;9.750;2023-01-20T09:42:37;28.17;;;14.07;;
30635;SDS011;17400;52.392;9.750;2023-01-20T09:45:36;25.33;;;12.50;;
30635;SDS011;17400;52.392;9.750;2023-01-20T09:48:08;25.97;;;12.77;;
30635;SDS011;17400;52.392;9.750;2023-01-20T09:50:53;22.67;;;10.77;;
30635;SDS011;17400;52.392;9.750;2023-01-20T09:53:47;28.50;;;12.60;;
30635;SDS011;17400;52.392;9.750;2023-01-20T09:56:21;31.67;;;14.80;;
30635;SDS011;17400;52.392;9.750;2023-01-20T09:58:54;20.60;;;10.03;;
30635;SDS011;17400;52.392;9.750;2023-01-20T10:01:27;25.87;;;12.27;;
30635;SDS011;17400;52.392;9.750;2023-01-20T10:04:03;29.77;;;13.37;;
30635;SDS011;17400;52.392;9.750;2023-01-20T10:06:36;32.47;;;14.00;;
30635;SDS011;17400;52.392;9.750;2023-01-20T10:09:10;27.40;;;13.97;;
30635;SDS011;17400;52.392;9.750;2023-01-20T10:11:46;29.27;;;13.43;;
30635;SDS011;17400;52.392;9.750;2023-01-20T10:14:17;34.30;;;15.83;;
30635;SDS011;17400;52.392;9.750;2023-01-20T10:16:53;25.53;;;13.03;;
30635;SDS011;17400;52.392;9.750;2023-01-20T10:19:25;31.90;;;14.43;;
30635;SDS011;17400;52.392;9.750;2023-01-20T10:22:04;39.40;;;16.10;;
30635;SDS011;17400;52.392;9.750;2023-01-20T10:24:37;30.27;;;17.23;;
30635;SDS011;17400;52.392;9.750;2023-01-20T10:27:10;36.37;;;14.33;;
30635;SDS011;17400;52.392;9.750;2023-01-20T10:29:40;29.60;;;14.83;;
30635;SDS011;17400;52.392;9.750;2023-01-20T10:32:17;26.47;;;13.10;;
30635;SDS011;17400;52.392;9.750;2023-01-20T10:34:51;27.60;;;13.50;;
30635;SDS011;17400;52.392;9.750;2023-01-20T10:37:22;27.17;;;12.03;;
30635;SDS011;17400;52.392;9.750;2023-01-20T10:39:51;20.93;;;10.90;;
30635;SDS011;17400;52.392;9.750;2023-01-20T10:42:22;26.53;;;12.60;;
30635;SDS011;17400;52.392;9.750;2023-01-20T10:44:54;28.30;;;12.90;;
30635;SDS011;17400;52.392;9.750;2023-01-20T10:47:23;25.03;;;11.30;;
30635;SDS011;17400;52.392;9.750;2023-01-20T10:49:58;28.47;;;13.00;;
30635;SDS011;17400;52.392;9.750;2023-01-20T10:52:42;29.70;;;11.93;;
30635;SDS011;17400;52.392;9.750;2023-01-20T10:55:22;24.37;;;11.33;;
30635;SDS011;17400;52.392;9.750;2023-01-20T10:58:00;22.00;;;11.10;;
30635;SDS011;17400;52.392;9.750;2023-01-20T11:00:37;23.93;;;13.97;;
30635;SDS011;17400;52.392;9.750;2023-01-20T11:03:06;29.93;;;13.33;;
30635;SDS011;17400;52.392;9.750;2023-01-20T11:05:40;27.33;;;11.00;;
30635;SDS011;17400;52.392;9.750;2023-01-20T11:08:09;33.63;;;15.40;;
30635;SDS011;17400;52.392;9.750;2023-01-20T11:10:43;31.43;;;12.90;;
30635;SDS011;17400;52.392;9.750;2023-01-20T11:13:14;27.00;;;14.23;;
30635;SDS011;17400;52.392;9.750;2023-01-20T11:15:44;22.57;;;13.40;;
30635;SDS011;17400;52.392;9.750;2023-01-20T11:18:18;25.57;;;12.53;;
30635;SDS011;17400;52.392;9.750;2023-01-20T11:20:55;24.07;;;10.93;;
30635;SDS011;17400;52.392;9.750;2023-01-20T11:23:27;27.40;;;12.57;;
30635;SDS011;17400;52.392;9.750;2023-01-20T11:26:02;23.40;;;11.43;;
30635;SDS011;17400;52.392;9.750;2023-01-20T11:28:46;26.20;;;12.80;;
30635;SDS011;17400;52.392;9.750;2023-01-20T11:31:18;27.40;;;12.77;;
30635;SDS011;17400;52.392;9.750;2023-01-20T11:33:53;26.30;;;11.33;;
30635;SDS011;17400;52.392;9.750;2023-01-20T11:36:23;24.73;;;12.57;;
30635;SDS011;17400;52.392;9.750;2023-01-20T11:38:52;24.63;;;10.77;;
30635;SDS011;17400;52.392;9.750;2023-01-20T11:41:22;23.90;;;10.67;;
30635;SDS011;17400;52.392;9.750;2023-01-20T11:43:52;20.83;;;11.30;;
30635;SDS011;17400;52.392;9.750;2023-01-20T11:46:24;25.80;;;14.27;;
30635;SDS011;17400;52.392;9.750;2023-01-20T11:49:11;23.83;;;10.07;;
30635;SDS011;17400;52.392;9.750;2023-01-20T11:51:45;20.87;;;9.87;;
30635;SDS011;17400;52.392;9.750;2023-01-20T11:54:16;22.93;;;11.33;;
30635;SDS011;17400;52.392;9.750;2023-01-20T11:56:48;25.43;;;12.30;;
30635;SDS011;17400;52.392;9.750;2023-01-20T11:59:22;25.60;;;11.17;;
30635;SDS011;17400;52.392;9.750;2023-01-20T12:01:55;28.60;;;11.87;;
30635;SDS011;17400;52.392;9.750;2023-01-20T12:04:43;24.80;;;10.67;;
30635;SDS011;17400;52.392;9.750;2023-01-20T12:07:22;25.03;;;11.33;;
30635;SDS011;17400;52.392;9.750;2023-01-20T12:09:54;18.77;;;9.10;;
30635;SDS011;17400;52.392;9.750;2023-01-20T12:12:33;24.10;;;12.17;;
30635;SDS011;17400;52.392;9.750;2023-01-20T12:15:09;21.70;;;12.43;;
30635;SDS011;17400;52.392;9.750;2023-01-20T12:17:44;16.97;;;9.20;;
30635;SDS011;17400;52.392;9.750;2023-01-20T12:20:19;14.60;;;6.90;;
30635;SDS011;17400;52.392;9.750;2023-01-20T12:22:54;23.80;;;12.83;;
30635;SDS011;17400;52.392;9.750;2023-01-20T12:25:33;26.77;;;12.43;;
30635;SDS011;17400;52.392;9.750;2023-01-20T12:28:09;23.70;;;12.33;;
30635;SDS011;17400;52.392;9.750;2023-01-20T12:30:44;22.97;;;10.50;;
30635;SDS011;17400;52.392;9.750;2023-01-20T12:33:19;21.60;;;12.13;;
30635;SDS011;17400;52.392;9.750;2023-01-20T12:38:47;21.73;;;11.70;;
30635;SDS011;17400;52.392;9.750;2023-01-20T12:41:28;22.13;;;12.87;;
30635;SDS011;17400;52.392;9.750;2023-01-20T12:44:16;21.80;;;10.67;;
30635;SDS011;17400;52.392;9.750;2023-01-20T12:46:50;31.83;;;13.27;;
30635;SDS011;17400;52.392;9.750;2023-01-20T12:49:26;21.70;;;9.03;;
30635;SDS011;17400;52.392;9.750;2023-01-20T12:52:08;17.20;;;9.17;;
30635;SDS011;17400;52.392;9.750;2023-01-20T12:54:52;19.03;;;9.37;;
30635;SDS011;17400;52.392;9.750;2023-01-20T12:57:32;20.47;;;9.30;;
30635;SDS011;17400;52.392;9.750;2023-01-20T13:00:15;18.40;;;9.40;;
30635;SDS011;17400;52.392;9.750;2023-01-20T13:02:56;12.43;;;7.10;;
30635;SDS011;17400;52.392;9.750;2023-01-20T13:05:48;13.70;;;5.60;;
30635;SDS011;17400;52.392;9.750;2023-01-20T13:08:37;18.53;;;7.87;;
30635;SDS011;17400;52.392;9.750;2023-01-20T13:11:13;21.43;;;9.70;;
30635;SDS011;17400;52.392;9.750;2023-01-20T13:13:55;21.80;;;10.17;;
30635;SDS011;17400;52.392;9.750;2023-01-20T13:16:35;15.50;;;8.63;;
30635;SDS011;17400;52.392;9.750;2023-01-20T13:19:10;25.07;;;11.17;;
30635;SDS011;17400;52.392;9.750;2023-01-20T13:21:43;24.50;;;11.13;;
30635;SDS011;17400;52.392;9.750;2023-01-20T13:24:16;20.37;;;10.07;;
30635;SDS011;17400;52.392;9.750;2023-01-20T13:26:54;14.77;;;7.63;;
30635;SDS011;17400;52.392;9.750;2023-01-20T13:29:39;21.37;;;8.30;;
30635;SDS011;17400;52.392;9.750;2023-01-20T13:32:24;20.97;;;10.13;;
30635;SDS011;17400;52.392;9.750;2023-01-20T13:34:53;18.57;;;8.73;;
30635;SDS011;17400;52.392;9.750;2023-01-20T13:49:25;21.27;;;10.00;;
30635;SDS011;17400;52.392;9.750;2023-01-20T13:51:55;17.73;;;10.00;;
30635;SDS011;17400;52.392;9.750;2023-01-20T13:54:36;19.17;;;9.70;;
30635;SDS011;17400;52.392;9.750;2023-01-20T14:00:16;24.10;;;9.77;;
30635;SDS011;17400;52.392;9.750;2023-01-20T14:02:50;22.23;;;10.43;;
30635;SDS011;17400;52.392;9.750;2023-01-20T14:05:29;16.53;;;8.70;;
30635;SDS011;17400;52.392;9.750;2023-01-20T14:07:58;24.57;;;10.53;;
30635;SDS011;17400;52.392;9.750;2023-01-20T14:10:28;24.57;;;10.37;;
30635;SDS011;17400;52.392;9.750;2023-01-20T14:12:55;22.07;;;10.73;;
30635;SDS011;17400;52.392;9.750;2023-01-20T14:18:10;20.83;;;9.50;;
30635;SDS011;17400;52.392;9.750;2023-01-20T14:20:41;25.70;;;12.30;;
30635;SDS011;17400;52.392;9.750;2023-01-20T14:26:01;22.87;;;10.70;;
30635;SDS011;17400;52.392;9.750;2023-01-20T14:28:32;21.67;;;9.47;;
30635;SDS011;17400;52.392;9.750;2023-01-20T14:31:04;20.90;;;8.40;;
30635;SDS011;17400;52.392;9.750;2023-01-20T14:33:42;18.07;;;8.80;;
30635;SDS011;17400;52.392;9.750;2023-01-20T14:36:12;15.63;;;8.63;;
30635;SDS011;17400;52.392;9.750;2023-01-20T14:38:41;17.20;;;8.47;;
30635;SDS011;17400;52.392;9.750;2023-01-20T14:41:25;16.23;;;7.17;;
30635;SDS011;17400;52.392;9.750;2023-01-20T14:43:55;18.03;;;7.73;;
30635;SDS011;17400;52.392;9.750;2023-01-20T14:46:23;12.67;;;8.47;;
30635;SDS011;17400;52.392;9.750;2023-01-20T14:48:53;16.40;;;9.10;;
30635;SDS011;17400;52.392;9.750;2023-01-20T14:51:22;12.73;;;6.73;;
30635;SDS011;17400;52.392;9.750;2023-01-20T14:56:52;15.27;;;7.77;;
30635;SDS011;17400;52.392;9.750;2023-01-20T14:59:19;16.77;;;8.33;;
30635;SDS011;17400;52.392;9.750;2023-01-20T15:01:49;14.97;;;7.83;;
30635;SDS011;17400;52.392;9.750;2023-01-20T15:04:18;14.67;;;9.03;;
30635;SDS011;17400;52.392;9.750;2023-01-20T15:06:49;18.03;;;9.00;;
30635;SDS011;17400;52.392;9.750;2023-01-20T15:09:25;15.07;;;8.83;;
30635;SDS011;17400;52.392;9.750;2023-01-20T15:15:14;14.33;;;8.83;;
30635;SDS011;17400;52.392;9.750;2023-01-20T15:20:45;15.93;;;8.53;;
30635;SDS011;17400;52.392;9.750;2023-01-20T15:23:15;17.27;;;7.10;;